createdAt,value
2023-03-25T00:01:20.949Z,25.00
2023-03-25T00:03:51.488Z,24.25
2023-03-25T00:06:20.451Z,24.50
2023-03-25T00:08:49.131Z,24.00
2023-03-25T00:11:17.733Z,23.75
2023-03-25T00:13:46.139Z,24.00
2023-03-25T00:16:14.521Z,25.50
2023-03-25T00:18:43.234Z,25.25
2023-03-25T00:21:12.671Z,25.75
2023-03-25T00:23:42.338Z,24.00
2023-03-25T00:26:11.671Z,25.25
2023-03-25T00:28:40.627Z,23.75
2023-03-25T00:31:13.770Z,24.25
2023-03-25T00:33:43.133Z,26.00
2023-03-25T00:36:15.495Z,26.75
2023-03-25T00:38:44.189Z,27.25
2023-03-25T00:41:26.812Z,27.50
2023-03-25T00:43:58.043Z,27.25
2023-03-25T00:46:28.418Z,28.25
2023-03-25T00:48:59.317Z,27.50
2023-03-25T00:51:29.518Z,26.00
2023-03-25T00:54:01.231Z,27.75
2023-03-25T00:56:31.240Z,26.50
2023-03-25T00:58:59.639Z,26.75
2023-03-25T01:01:29.575Z,26.75
2023-03-25T01:03:59.906Z,26.25
2023-03-25T01:06:33.989Z,26.25
2023-03-25T01:09:05.835Z,27.25
2023-03-25T01:11:35.943Z,25.75
2023-03-25T01:14:06.905Z,26.75
2023-03-25T01:16:35.420Z,26.25
2023-03-25T01:19:04.235Z,25.75
2023-03-25T01:21:37.541Z,26.25
2023-03-25T01:24:06.975Z,25.25
2023-03-25T01:26:35.535Z,22.50
2023-03-25T01:29:04.069Z,25.00
2023-03-25T01:31:32.446Z,23.75
2023-03-25T01:34:01.590Z,22.25
2023-03-25T01:36:33.181Z,23.25
2023-03-25T01:39:02.394Z,24.00
2023-03-25T01:41:46.431Z,21.00
2023-03-25T01:44:23.660Z,21.75
2023-03-25T01:46:54.525Z,22.50
2023-03-25T01:49:41.660Z,23.25
2023-03-25T01:52:14.885Z,22.75
2023-03-25T01:54:44.375Z,22.00
2023-03-25T01:57:20.426Z,24.00
2023-03-25T01:59:49.754Z,23.25
2023-03-25T02:02:20.194Z,22.25
2023-03-25T02:05:04.818Z,23.00
2023-03-25T02:07:35.643Z,22.25
2023-03-25T02:10:09.184Z,23.00
2023-03-25T02:12:37.797Z,24.25
2023-03-25T02:15:09.373Z,22.25
2023-03-25T02:17:46.380Z,23.75
2023-03-25T02:20:46.368Z,22.50
2023-03-25T02:23:29.095Z,23.50
2023-03-25T02:26:30.750Z,22.25
2023-03-25T02:29:24.906Z,22.00
2023-03-25T02:32:14.969Z,22.25
2023-03-25T02:34:47.473Z,23.75
2023-03-25T02:37:47.753Z,21.25
2023-03-25T02:40:22.375Z,23.00
2023-03-25T02:42:56.934Z,22.75
2023-03-25T02:45:50.941Z,22.75
2023-03-25T02:48:27.081Z,21.75
2023-03-25T02:50:59.066Z,23.25
2023-03-25T02:53:38.793Z,23.75
2023-03-25T02:56:11.910Z,23.00
2023-03-25T02:58:42.850Z,22.25
2023-03-25T03:01:11.250Z,23.25
2023-03-25T03:03:39.782Z,23.00
2023-03-25T03:06:09.380Z,22.25
2023-03-25T03:08:52.704Z,21.25
2023-03-25T03:11:27.014Z,21.50
2023-03-25T03:14:35.532Z,22.00
2023-03-25T03:17:10.193Z,20.25
2023-03-25T03:19:50.326Z,21.50
2023-03-25T03:22:55.066Z,22.50
2023-03-25T03:25:46.864Z,20.00
2023-03-25T03:28:40.781Z,19.25
2023-03-25T03:31:48.551Z,19.00
2023-03-25T03:34:30.135Z,20.25
2023-03-25T03:37:01.856Z,19.25
2023-03-25T03:39:34.818Z,20.75
2023-03-25T03:42:13.072Z,20.25
2023-03-25T03:44:46.651Z,21.00
2023-03-25T03:47:25.331Z,19.25
2023-03-25T03:50:20.029Z,21.25
2023-03-25T03:53:17.588Z,20.25
2023-03-25T03:56:02.727Z,20.50
2023-03-25T03:58:36.169Z,21.25
2023-03-25T04:01:14.060Z,20.00
2023-03-25T04:03:56.571Z,20.25
2023-03-25T04:06:36.428Z,18.50
2023-03-25T04:09:35.587Z,20.00
2023-03-25T04:12:36.420Z,19.75
2023-03-25T04:15:07.261Z,20.50
2023-03-25T04:17:35.666Z,21.25
2023-03-25T04:20:09.967Z,19.75
2023-03-25T04:22:39.430Z,20.25
2023-03-25T04:25:08.523Z,19.75
2023-03-25T04:27:38.779Z,19.75
2023-03-25T04:30:09.181Z,18.75
2023-03-25T04:32:37.648Z,18.00
2023-03-25T04:35:06.255Z,16.75
2023-03-25T04:37:34.814Z,19.25
2023-03-25T04:40:03.147Z,17.25
2023-03-25T04:42:33.788Z,19.75
2023-03-25T04:45:02.304Z,16.25
2023-03-25T04:47:30.833Z,17.25
2023-03-25T04:49:59.213Z,16.50
2023-03-25T04:52:27.574Z,14.75
2023-03-25T04:54:56.533Z,18.25
2023-03-25T04:57:26.757Z,18.50
2023-03-25T04:59:55.088Z,18.25
2023-03-25T05:02:25.007Z,18.50
2023-03-25T05:04:55.228Z,17.50
2023-03-25T05:07:23.634Z,18.00
2023-03-25T05:09:51.966Z,16.25
2023-03-25T05:12:20.308Z,18.50
2023-03-25T05:14:48.649Z,15.75
2023-03-25T05:17:17.008Z,16.50
2023-03-25T05:19:45.552Z,19.00
2023-03-25T05:22:14.026Z,18.25
2023-03-25T05:24:46.080Z,17.75
2023-03-25T05:27:14.416Z,18.50
2023-03-25T05:29:45.514Z,19.00
2023-03-25T05:32:19.518Z,18.00
2023-03-25T05:34:50.101Z,19.50
2023-03-25T05:37:18.646Z,16.25
2023-03-25T05:39:47.173Z,16.00
2023-03-25T05:42:16.197Z,16.75
2023-03-25T05:44:51.953Z,14.75
2023-03-25T05:47:25.656Z,21.00
2023-03-25T05:49:55.270Z,24.75
2023-03-25T05:52:28.396Z,24.50
2023-03-25T05:54:56.856Z,21.25
2023-03-25T05:57:25.275Z,21.50
2023-03-25T05:59:53.602Z,17.25
2023-03-25T06:02:22.015Z,19.75
2023-03-25T06:04:52.251Z,21.00
2023-03-25T06:07:21.188Z,19.00
2023-03-25T06:09:50.764Z,19.50
2023-03-25T06:12:21.641Z,20.25
2023-03-25T06:14:55.103Z,20.50
2023-03-25T06:17:23.851Z,18.00
2023-03-25T06:19:53.183Z,14.50
2023-03-25T06:22:22.977Z,15.25
2023-03-25T06:24:51.437Z,15.75
2023-03-25T06:27:21.433Z,16.00
2023-03-25T06:29:49.825Z,16.25
2023-03-25T06:32:18.176Z,15.25
2023-03-25T06:34:46.704Z,14.00
2023-03-25T06:37:15.054Z,14.00
2023-03-25T06:39:47.256Z,13.50
2023-03-25T06:42:15.768Z,13.50
2023-03-25T06:44:44.140Z,14.75
2023-03-25T06:47:12.559Z,13.00
2023-03-25T06:49:40.956Z,10.50
2023-03-25T06:52:09.421Z,13.75
2023-03-25T06:54:37.812Z,14.75
2023-03-25T06:57:07.200Z,14.25
2023-03-25T06:59:35.642Z,15.00
2023-03-25T07:02:04.262Z,15.00
2023-03-25T07:04:32.682Z,14.25
2023-03-25T07:07:01.216Z,15.00
2023-03-25T07:09:29.586Z,12.75
2023-03-25T07:11:58.093Z,15.50
2023-03-25T07:14:26.568Z,13.75
2023-03-25T07:16:55.009Z,14.00
2023-03-25T07:19:23.763Z,15.25
2023-03-25T07:21:52.125Z,14.25
2023-03-25T07:24:20.508Z,15.75
2023-03-25T07:26:48.982Z,14.00
2023-03-25T07:29:17.362Z,14.75
2023-03-25T07:31:47.579Z,12.75
2023-03-25T07:34:16.019Z,12.50
2023-03-25T07:36:44.384Z,14.75
2023-03-25T07:39:12.837Z,12.25
2023-03-25T07:41:41.358Z,12.00
2023-03-25T07:44:09.734Z,12.00
2023-03-25T07:46:38.190Z,10.50
2023-03-25T07:49:06.618Z,14.00
2023-03-25T07:51:36.029Z,11.25
2023-03-25T07:54:05.201Z,11.75
2023-03-25T07:56:35.376Z,12.00
2023-03-25T07:59:04.279Z,10.50
2023-03-25T08:01:32.930Z,13.75
2023-03-25T08:04:01.449Z,11.75
2023-03-25T08:06:29.853Z,12.75
2023-03-25T08:08:58.271Z,12.50
2023-03-25T08:11:26.641Z,13.75
2023-03-25T08:13:54.979Z,11.00
2023-03-25T08:16:23.478Z,12.75
2023-03-25T08:18:53.808Z,11.25
2023-03-25T08:21:29.316Z,10.25
2023-03-25T08:24:05.527Z,12.00
2023-03-25T08:26:34.862Z,11.00
2023-03-25T08:29:03.634Z,10.00
2023-03-25T08:31:33.819Z,11.00
2023-03-25T08:34:03.269Z,10.75
2023-03-25T08:36:31.978Z,9.25
2023-03-25T08:39:00.342Z,11.00
2023-03-25T08:41:28.831Z,9.75
2023-03-25T08:43:57.169Z,10.00
2023-03-25T08:46:25.698Z,10.00
2023-03-25T08:48:54.743Z,8.75
2023-03-25T08:51:23.737Z,8.50
2023-03-25T08:53:52.130Z,11.00
2023-03-25T08:56:20.495Z,10.50
2023-03-25T08:58:48.887Z,9.75
2023-03-25T09:01:17.252Z,10.25
2023-03-25T09:03:45.622Z,10.50
2023-03-25T09:06:13.995Z,10.00
2023-03-25T09:08:42.369Z,8.75
2023-03-25T09:11:10.845Z,5.00
2023-03-25T09:13:39.226Z,8.25
2023-03-25T09:16:08.382Z,9.25
2023-03-25T09:18:37.769Z,7.50
2023-03-25T09:21:06.763Z,8.50
2023-03-25T09:23:35.352Z,9.00
2023-03-25T09:26:06.114Z,8.25
2023-03-25T09:28:34.548Z,9.25
2023-03-25T09:31:03.042Z,8.25
2023-03-25T09:33:31.564Z,7.75
2023-03-25T09:35:59.971Z,9.75
2023-03-25T09:38:28.677Z,10.50
2023-03-25T09:40:57.350Z,11.50
2023-03-25T09:44:10.878Z,10.25
2023-03-25T09:46:40.935Z,11.50
2023-03-25T09:49:22.369Z,9.00
2023-03-25T09:51:53.914Z,10.25
2023-03-25T09:54:37.202Z,9.00
2023-03-25T09:57:14.759Z,8.50
2023-03-25T09:59:50.576Z,10.25
2023-03-25T10:02:41.339Z,10.00
2023-03-25T10:05:41.011Z,10.25
2023-03-25T10:08:48.315Z,11.00
2023-03-25T10:11:22.334Z,9.50
2023-03-25T10:14:12.918Z,9.00
2023-03-25T10:16:56.321Z,9.25
2023-03-25T10:19:36.942Z,9.75
2023-03-25T10:22:06.839Z,9.00
2023-03-25T10:24:55.189Z,11.50
2023-03-25T10:27:46.502Z,8.75
2023-03-25T10:30:33.814Z,10.25
2023-03-25T10:33:07.438Z,9.75
2023-03-25T10:35:42.429Z,11.00
2023-03-25T10:38:25.149Z,8.50
2023-03-25T10:41:00.694Z,9.50
2023-03-25T10:43:31.743Z,9.50
2023-03-25T10:46:17.946Z,9.50
2023-03-25T10:48:48.300Z,8.25
2023-03-25T10:51:28.430Z,10.00
2023-03-25T10:53:57.408Z,8.75
2023-03-25T10:56:49.060Z,8.75
2023-03-25T11:00:21.816Z,7.75
2023-03-25T11:02:50.518Z,8.00
2023-03-25T11:05:24.514Z,8.25
2023-03-25T11:07:59.885Z,9.50
2023-03-25T11:10:33.476Z,9.00
2023-03-25T11:13:08.589Z,8.75
2023-03-25T11:15:39.817Z,8.75
2023-03-25T11:18:46.651Z,8.75
2023-03-25T11:21:15.812Z,8.50
2023-03-25T11:23:53.636Z,10.50
2023-03-25T11:26:35.442Z,10.25
2023-03-25T11:29:10.522Z,10.75
2023-03-25T11:31:39.554Z,9.75
2023-03-25T11:34:20.746Z,10.75
2023-03-25T11:37:16.811Z,9.00
2023-03-25T11:39:56.237Z,9.75
2023-03-25T11:42:36.735Z,11.00
2023-03-25T11:45:06.896Z,8.25
2023-03-25T11:47:39.162Z,9.75
2023-03-25T11:50:08.950Z,8.00
2023-03-25T11:52:48.262Z,11.50
2023-03-25T11:55:46.504Z,10.50
2023-03-25T11:58:22.637Z,9.50
2023-03-25T12:00:54.559Z,9.75
2023-03-25T12:03:28.637Z,13.00
2023-03-25T12:06:05.136Z,12.75
2023-03-25T12:08:52.935Z,11.25
2023-03-25T12:11:37.936Z,12.25
2023-03-25T12:14:31.990Z,13.75
2023-03-25T12:17:06.081Z,12.25
2023-03-25T12:20:04.204Z,13.50
2023-03-25T12:22:53.952Z,14.50
2023-03-25T12:25:50.010Z,14.00
2023-03-25T12:29:03.835Z,14.25
2023-03-25T12:31:43.732Z,12.25
2023-03-25T12:34:39.752Z,12.75
2023-03-25T12:37:23.025Z,13.75
2023-03-25T12:40:16.370Z,12.00
2023-03-25T12:42:53.573Z,11.50
2023-03-25T12:45:25.390Z,10.75
2023-03-25T12:48:32.395Z,12.75
2023-03-25T12:51:18.641Z,11.50
2023-03-25T12:54:19.403Z,11.00
2023-03-25T12:57:03.046Z,13.75
2023-03-25T12:59:49.055Z,12.00
2023-03-25T13:02:43.272Z,13.75
2023-03-25T13:05:20.782Z,13.50
2023-03-25T13:08:08.636Z,12.25
2023-03-25T13:10:40.709Z,12.00
2023-03-25T13:13:21.519Z,14.25
2023-03-25T13:16:04.939Z,13.75
2023-03-25T13:19:04.582Z,12.75
2023-03-25T13:21:53.595Z,12.50
2023-03-25T13:24:29.406Z,12.75
2023-03-25T13:26:59.797Z,13.75
2023-03-25T13:29:51.269Z,12.00
2023-03-25T13:32:26.713Z,14.25
2023-03-25T13:35:04.683Z,12.75
2023-03-25T13:37:54.057Z,13.00
2023-03-25T13:40:37.791Z,12.00
2023-03-25T13:43:24.529Z,15.50
2023-03-25T13:46:03.862Z,14.00
2023-03-25T13:48:44.533Z,16.25
2023-03-25T13:51:12.945Z,15.00
2023-03-25T13:53:59.879Z,16.50
2023-03-25T13:57:02.483Z,17.00
2023-03-25T13:59:56.078Z,15.75
2023-03-25T14:02:48.589Z,14.75
2023-03-25T14:05:29.463Z,16.50
2023-03-25T14:08:20.286Z,16.00
2023-03-25T14:10:55.669Z,13.75
2023-03-25T14:13:37.622Z,15.75
2023-03-25T14:16:20.155Z,15.75
2023-03-25T14:18:53.497Z,13.75
2023-03-25T14:21:28.341Z,15.75
2023-03-25T14:24:18.975Z,14.75
2023-03-25T14:26:56.448Z,14.25
2023-03-25T14:29:34.455Z,15.50
2023-03-25T14:32:10.598Z,13.25
2023-03-25T14:34:40.646Z,15.25
2023-03-25T14:37:09.050Z,13.75
2023-03-25T14:39:41.043Z,14.50
2023-03-25T14:42:09.566Z,15.25
2023-03-25T14:44:55.260Z,14.75
2023-03-25T14:47:23.771Z,17.25
2023-03-25T14:49:55.037Z,16.50
2023-03-25T14:52:34.791Z,17.00
2023-03-25T14:55:10.668Z,15.25
2023-03-25T14:57:44.868Z,15.75
2023-03-25T15:00:29.431Z,14.50
2023-03-25T15:03:14.377Z,15.75
2023-03-25T15:05:44.195Z,16.25
2023-03-25T15:08:15.814Z,13.00
2023-03-25T15:11:05.208Z,15.00
2023-03-25T15:13:43.488Z,15.75
2023-03-25T15:16:38.104Z,15.50
2023-03-25T15:19:24.338Z,16.00
2023-03-25T15:21:58.944Z,14.50
2023-03-25T15:24:38.427Z,15.50
2023-03-25T15:27:27.696Z,15.25
2023-03-25T15:30:23.377Z,15.00
2023-03-25T15:33:20.732Z,17.25
2023-03-25T15:36:16.326Z,16.00
2023-03-25T15:39:02.854Z,14.50
2023-03-25T15:41:44.770Z,16.50
2023-03-25T15:44:45.006Z,16.75
2023-03-25T15:48:01.207Z,15.75
2023-03-25T15:50:55.985Z,16.50
2023-03-25T15:53:42.890Z,17.50
2023-03-25T15:56:22.864Z,16.50
2023-03-25T15:58:59.451Z,16.00
2023-03-25T16:01:50.724Z,17.00
2023-03-25T16:04:22.729Z,14.25
2023-03-25T16:06:55.386Z,17.00
2023-03-25T16:09:28.723Z,17.75
2023-03-25T16:12:04.580Z,13.75
2023-03-25T16:14:34.929Z,14.00
2023-03-25T16:17:07.434Z,16.00
2023-03-25T16:19:55.579Z,16.50
2023-03-25T16:22:36.646Z,17.25
2023-03-25T16:25:28.470Z,17.00
2023-03-25T16:27:59.115Z,17.25
2023-03-25T16:30:32.042Z,17.75
2023-03-25T16:33:09.675Z,18.75
2023-03-25T16:35:44.854Z,16.50
2023-03-25T16:38:20.296Z,16.50
2023-03-25T16:40:50.436Z,17.25
2023-03-25T16:43:23.343Z,16.75
2023-03-25T16:45:54.265Z,15.75
2023-03-25T16:48:37.223Z,16.00
2023-03-25T16:51:24.011Z,17.75
2023-03-25T16:54:02.012Z,18.75
2023-03-25T16:56:37.604Z,17.25
2023-03-25T16:59:21.450Z,19.25
2023-03-25T17:01:56.411Z,17.25
2023-03-25T17:04:49.237Z,17.00
2023-03-25T17:07:23.471Z,17.75
2023-03-25T17:09:54.244Z,18.25
2023-03-25T17:12:24.964Z,16.50
2023-03-25T17:14:58.053Z,18.00
2023-03-25T17:17:50.553Z,18.50
2023-03-25T17:20:33.556Z,20.75
2023-03-25T17:23:11.560Z,17.75
2023-03-25T17:25:55.904Z,17.75
2023-03-25T17:28:28.194Z,18.00
2023-03-25T17:30:56.919Z,17.75
2023-03-25T17:33:31.031Z,18.50
2023-03-25T17:35:59.640Z,17.25
2023-03-25T17:38:43.102Z,18.75
2023-03-25T17:41:12.563Z,19.75
2023-03-25T17:44:01.766Z,17.50
2023-03-25T17:46:32.362Z,18.25
2023-03-25T17:49:01.234Z,17.00
2023-03-25T17:51:32.228Z,19.00
2023-03-25T17:54:01.514Z,18.50
2023-03-25T17:56:30.292Z,17.25
2023-03-25T17:59:04.197Z,19.25
2023-03-25T18:01:33.549Z,18.75
2023-03-25T18:04:02.120Z,19.25
2023-03-25T18:06:30.533Z,19.00
2023-03-25T18:08:59.257Z,19.25
2023-03-25T18:11:27.651Z,20.00
2023-03-25T18:13:56.300Z,19.00
2023-03-25T18:16:24.849Z,19.75
2023-03-25T18:18:53.242Z,19.75
2023-03-25T18:21:23.429Z,18.75
2023-03-25T18:23:52.119Z,19.75
2023-03-25T18:26:21.043Z,19.00
2023-03-25T18:28:50.346Z,20.25
2023-03-25T18:31:18.905Z,20.25
2023-03-25T18:33:52.520Z,19.25
2023-03-25T18:36:20.906Z,19.25
2023-03-25T18:38:49.850Z,19.50
2023-03-25T18:41:18.443Z,21.00
2023-03-25T18:43:47.049Z,20.00
2023-03-25T18:46:16.782Z,18.75
2023-03-25T18:48:45.240Z,20.75
2023-03-25T18:51:14.758Z,19.50
2023-03-25T18:53:43.267Z,20.00
2023-03-25T18:56:11.928Z,20.25
2023-03-25T18:58:40.344Z,19.50
2023-03-25T19:01:10.846Z,19.25
2023-03-25T19:03:42.203Z,21.00
2023-03-25T19:06:12.988Z,20.00
2023-03-25T19:08:44.452Z,21.75
2023-03-25T19:11:20.921Z,19.75
2023-03-25T19:13:51.292Z,20.50
2023-03-25T19:16:20.296Z,19.25
2023-03-25T19:18:48.838Z,22.00
2023-03-25T19:21:19.690Z,19.75
2023-03-25T19:23:48.491Z,20.75
2023-03-25T19:26:16.868Z,19.75
2023-03-25T19:28:45.334Z,21.25
2023-03-25T19:31:19.665Z,19.75
2023-03-25T19:33:48.091Z,20.00
2023-03-25T19:36:19.842Z,20.50
2023-03-25T19:38:48.333Z,20.50
2023-03-25T19:41:17.359Z,20.00
2023-03-25T19:43:46.190Z,21.75
2023-03-25T19:46:14.589Z,19.50
2023-03-25T19:48:43.004Z,21.25
2023-03-25T19:51:11.466Z,20.00
2023-03-25T19:53:39.815Z,21.00
2023-03-25T19:56:08.427Z,21.25
2023-03-25T19:58:36.787Z,21.00
2023-03-25T20:01:05.300Z,20.75
2023-03-25T20:03:36.446Z,20.00
2023-03-25T20:06:07.464Z,20.75
2023-03-25T20:08:35.834Z,20.50
2023-03-25T20:11:11.229Z,21.50
2023-03-25T20:13:40.170Z,21.25
2023-03-25T20:16:09.313Z,21.50
2023-03-25T20:18:38.043Z,19.25
2023-03-25T20:21:10.578Z,20.50
2023-03-25T20:23:39.020Z,20.75
2023-03-25T20:26:07.701Z,19.75
2023-03-25T20:28:37.065Z,20.75
2023-03-25T20:31:17.419Z,21.50
2023-03-25T20:33:46.134Z,20.50
2023-03-25T20:36:15.142Z,20.25
2023-03-25T20:38:56.020Z,20.50
2023-03-25T20:41:26.426Z,21.50
2023-03-25T20:43:54.795Z,21.50
2023-03-25T20:46:26.239Z,22.00
2023-03-25T20:48:54.673Z,19.75
2023-03-25T20:51:25.051Z,19.00
2023-03-25T20:53:54.485Z,21.50
2023-03-25T20:56:22.868Z,19.75
2023-03-25T20:58:51.422Z,21.25
2023-03-25T21:01:22.107Z,22.25
2023-03-25T21:03:52.797Z,20.75
2023-03-25T21:06:25.405Z,21.00
2023-03-25T21:08:55.640Z,20.00
2023-03-25T21:11:24.759Z,20.25
2023-03-25T21:13:53.200Z,20.25
2023-03-25T21:16:21.880Z,20.75
2023-03-25T21:18:51.248Z,20.50
2023-03-25T21:21:20.133Z,21.00
2023-03-25T21:23:50.107Z,22.00
2023-03-25T21:26:18.713Z,19.50
2023-03-25T21:28:47.033Z,20.00
2023-03-25T21:31:20.454Z,19.75
2023-03-25T21:33:53.793Z,20.00
2023-03-25T21:36:25.491Z,21.25
2023-03-25T21:39:01.288Z,20.00
2023-03-25T21:41:31.532Z,20.00
2023-03-25T21:43:59.913Z,20.00
2023-03-25T21:46:28.408Z,21.00
2023-03-25T21:48:59.387Z,20.75
2023-03-25T21:51:31.308Z,18.50
2023-03-25T21:54:01.181Z,19.75
2023-03-25T21:56:32.183Z,21.00
2023-03-25T21:59:02.674Z,20.50
2023-03-25T22:01:31.715Z,19.75
2023-03-25T22:04:02.257Z,21.75
2023-03-25T22:06:35.899Z,21.75
2023-03-25T22:09:07.439Z,21.00
2023-03-25T22:11:38.487Z,21.25
2023-03-25T22:14:07.670Z,21.50
2023-03-25T22:16:36.698Z,20.50
2023-03-25T22:19:05.824Z,21.00
2023-03-25T22:21:37.896Z,20.25
2023-03-25T22:24:07.732Z,20.50
2023-03-25T22:26:39.541Z,21.00
2023-03-25T22:29:10.205Z,21.25
2023-03-25T22:31:43.697Z,21.50
2023-03-25T22:34:16.056Z,19.00
2023-03-25T22:36:51.043Z,19.75
2023-03-25T22:39:21.245Z,20.00
2023-03-25T22:41:49.739Z,20.75
2023-03-25T22:44:19.195Z,19.75
2023-03-25T22:46:51.479Z,21.00
2023-03-25T22:49:20.968Z,21.25
2023-03-25T22:51:50.030Z,20.75
2023-03-25T22:54:18.749Z,21.00
2023-03-25T22:56:47.260Z,20.00
2023-03-25T22:59:16.760Z,20.50
2023-03-25T23:01:45.211Z,21.50
2023-03-25T23:04:14.305Z,20.00
2023-03-25T23:06:42.774Z,20.50
2023-03-25T23:09:12.577Z,21.25
2023-03-25T23:11:40.959Z,19.50
2023-03-25T23:14:13.921Z,19.75
2023-03-25T23:16:42.607Z,20.75
2023-03-25T23:19:11.140Z,21.25
2023-03-25T23:21:39.569Z,19.75
2023-03-25T23:24:08.676Z,20.00
2023-03-25T23:26:40.168Z,19.50
2023-03-25T23:29:11.913Z,19.75
2023-03-25T23:31:42.462Z,20.50
2023-03-25T23:34:13.833Z,20.25
2023-03-25T23:36:42.378Z,22.25
2023-03-25T23:39:14.541Z,22.00
2023-03-25T23:41:43.447Z,20.75
2023-03-25T23:44:12.294Z,21.50
2023-03-25T23:46:40.781Z,22.00
2023-03-25T23:49:11.592Z,23.50
2023-03-25T23:51:42.921Z,22.00
2023-03-25T23:54:13.452Z,21.00
2023-03-25T23:56:43.261Z,23.75
2023-03-25T23:59:13.053Z,22.50
